• Join FlightAware (Why Join?)
  • Login
  • US Flag 
03:22AM EDT


 

Airport Tracker/Info


-or-


 

Live Flight TrackerFlight Track Log ✈ UAL252 ✈ 24-Jul-2013 ✈ KEWR - KBOS

Flight Track Log - Related Links

Times and Time Zones

All times are in EDT time to prevent confusion due to time zone crossing. See the UAL252 flight status page for this flight to view local times or setup timezone preferences in your user account.

Time Position Orientation Groundspeed Altitude Reporting Facility
EDT Latitude Longitude Course Direction KTS MPH feet Rate Location/Type
06:18AM 40.6333 -74.1833 51° Northeast 176 203 2,000  Level New York TRACON
06:19AM 40.6167 -74.2333 246° West 233 268 4,600 2,820 Climbing New York TRACON
06:20AM 40.8365 -73.9302 37° Northeast  Level FlightAware Approximate
06:21AM 40.8901 -73.8572 47° Northeast  Level FlightAware Approximate
06:21AM 40.6986 -74.1975 18° North 255 293 9,200  Level Boston Center
06:22AM 40.9459 -73.7791 47° Northeast  Level FlightAware Approximate
06:22AM 40.7628 -74.0978 50° Northeast 271 312 9,900  Level Boston Center
06:23AM 40.9984 -73.6972 51° Northeast  Level FlightAware Approximate
06:23AM 40.8267 -73.9897 52° Northeast 324 373 9,900  Level Boston Center
06:24AM 41.0514 -73.6088 51° Northeast  Level FlightAware Approximate
06:24AM 40.8969 -73.8817 49° Northeast 361 415 10,800  Level Boston Center
06:25AM 40.9669 -73.7733 49° Northeast 375 432 13,900 3,000 Climbing Boston Center
06:26AM 41.0225 -73.6533 58° Northeast 380 437 16,800 2,820 Climbing Boston Center
06:27AM 41.0678 -73.5167 66° East 396 456 19,600 2,100 Climbing Boston Center
06:28AM 41.1128 -73.3794 66° East 396 456 21,000 660 Climbing Boston Center
06:29AM 41.1556 -73.2422 67° East 396 456 21,000  Level Boston Center
06:30AM 41.2000 -73.1050 67° East 396 456 21,000  Level Boston Center
06:31AM 41.2447 -72.9647 67° East 396 456 21,000  Level Boston Center
06:32AM 41.2911 -72.8269 66° East 402 463 21,000 -60 Level Boston Center
06:33AM 41.3353 -72.6833 68° East 402 463 20,900 -60 Descending Boston Center
06:34AM 41.3792 -72.5453 67° East 402 463 20,900  Level Boston Center
06:35AM 41.4167 -72.4236 68° East 402 463 21,000  Climbing Boston Center
06:36AM 41.4625 -72.2822 67° East 402 463 21,000  Level Boston Center
06:37AM 41.5081 -72.1325 68° East 396 456 21,000  Level Boston Center
06:38AM 41.5514 -71.9908 68° East 396 456 21,000 -300 Level Boston Center
06:39AM 41.5944 -71.8544 67° East 401 461 20,400 -840 Descending Boston Center
06:40AM 41.6372 -71.7122 68° East 401 461 19,400 -1,260 Descending Boston Center
06:41AM 41.6781 -71.5869 66° East 401 461 17,900 -2,040 Descending Boston Center
06:43AM 41.7717 -71.3183 65° Northeast 393 452 13,400 -2,100 Descending Boston Center
06:44AM 41.8286 -71.1836 60° Northeast 377 434 11,600 -1,320 Descending Boston Center
06:45AM 41.8733 -71.0822 59° Northeast 357 411 10,800 -840 Descending Boston Center
06:46AM 41.9261 -70.9611 60° Northeast 347 399 10,000 -660 Descending Boston Center
06:47AM 41.9706 -70.8597 59° Northeast 323 372 9,500 -600 Descending Boston Center
06:48AM 42.0131 -70.7692 58° Northeast 317 365 8,900 -600 Descending Boston Center
06:49AM 42.0678 -70.6839 49° Northeast 309 356 8,300 -600 Descending Boston Center
06:50AM 42.1314 -70.6147 39° Northeast 292 336 7,700 -900 Descending Boston Center
06:51AM 42.2103 -70.5928 12° North 280 322 6,500 -1,200 Descending Boston Center
06:52AM 42.2892 -70.5681 13° North 280 322 5,400 -840 Descending Boston Center
06:53AM 42.3561 -70.5969 342° North 264 304 4,900 -300 Descending Boston Center
06:54AM 42.4117 -70.6686 316° Northwest 249 287 4,900 -240 Level Boston Center
06:55AM 42.4647 -70.7372 316° Northwest 254 292 4,500 -480 Descending Boston Center
06:57AM 42.5500 -70.8833 308° West 204 235 3,400 -540 Descending KA90